METAR AND TAF INFORMATION
METAR FOR LGKL
ADDS - METARS form results

(0739 UTC 30 September 2022)
Data provider http://aviationweather.gov/metar/data/
 
METAR text: LGKL 300720Z 01005KT CAVOK 24/15 Q1015
Conditions at: LGKL (KALAMATA (HEL-AF, GR) observed 0720 UTC 30 September 2022
Temperature: 24.0°C (75°F)
Dewpoint: 15.0°C (59°F) [RH = 57%]
Pressure (altimeter): 29.97 inches Hg (1015.0 mb)
Winds: from the N (10 degrees) at 6 MPH (5 knots; 2.6 m/s)
Visibility: 6 or more miles (10+ km)
Ceiling: ceiling and visibility are OK
Clouds: unknown
Weather: no significant weather observed at this time

METAR text: LGKL 300650Z 01005KT CAVOK 23/16 Q1015
Conditions at: LGKL (KALAMATA (HEL-AF, GR) observed 0650 UTC 30 September 2022
Temperature: 23.0°C (73°F)
Dewpoint: 16.0°C (61°F) [RH = 65%]
Pressure (altimeter): 29.97 inches Hg (1015.0 mb)
Winds: from the N (10 degrees) at 6 MPH (5 knots; 2.6 m/s)
Visibility: 6 or more miles (10+ km)
Ceiling: ceiling and visibility are OK
Clouds: unknown
Weather: no significant weather observed at this time

Forecast for: LGKL (KALAMATA (HEL-AF, GR)
Text: TAF LGKL 300500Z 3006/3015 34005KT 9999 FEW020
Forecast period: 0600 to 1500 UTC 30 September 2022
Forecast type: FROM: standard forecast or significant change
Winds: from the NNW (340 degrees) at 6 MPH (5 knots; 2.6 m/s)
Visibility: 6 or more miles (10+ km)
Ceiling: at least 12,000 feet AGL
Clouds: few clouds at 2000 feet AGL
Weather: no significant weather forecast for this period
Text: TEMPO 3010/3015 15007KT
Forecast period: 1000 to 1500 UTC 30 September 2022
Forecast type: TEMPORARY: The following changes expected for less than half the time period
Winds: from the SSE (150 degrees) at 8 MPH (7 knots; 3.6 m/s)
Visibility: missing
Ceiling: unknown
Clouds: missing
Weather: no significant weather forecast for this period

 AIRPORT MAP

 RUNWAY INFORMATION
Runway 17R Runway length 9260 ft Runway width 148 ft
Runway elevation 26 ft Runway displaced threshold 240 ft Runway heading 169
Runway 35L Runway length 9260 ft Runway width 148 ft
Runway elevation 16 ft Runway displaced threshold 250 ft Runway heading 349

 AIRPORT FREQUENCIES
Type A/G Name RDO Frequency 563.7 MHZ
Type APP Name APP Frequency 120.75 MHZ
Type TWR Name TWR Frequency 120.75 MHZ

 AIRPORT NEAR NAVIGATION AIDS
Type VOR-DME Name Kalamata Frequency 112600 KHZ
Type TACAN Name Kalamata Frequency 115200 KHZ
Type NDB Name Kalamata Frequency 348 KHZ



Powered by Heron Airways VA. All Rights Reserved © 2009 [v2.6.2]